Aeroporto :
LOGIN :

Iscrizione | Disclaimer

   EN    FR    IT 

 










Sommario :    VFR   VFR Marginale   IFR   IFR Intensivo   IFR Molto Intensivo
Visibilità : 
Base nubi : 
>= 8 km
>= 3000ft
5 / 8 km
1000 / 3000 ft
1500m / 5 km
500 / 1000 ft
800 / 1500m
200 / 500 ft
< 800m
< 200 ft
Simboli :   Temporali  Nebbia  Neve Forte  Precipitazioni Forti  Vento > 20 kt
SIGMETs :   Varie  Temporali  Ghiacco  Turbolenza  Onda orograficha  Ceneri Vulcaniche






- Altitudine del aeroporto : 909 ft
- Codice IATA : KSF


EDVK - Kassel Calden

ULTIMO METAR :
  • 150920Z 25015KT 9999 SCT015 SCT040 07/03 Q0997

METARs OBSOLETI :
  • 150850Z 25012KT 230V290 9999 FEW003 SCT018 BKN053 06/04 Q0997
  • 150820Z 29021KT 9999 -RA FEW002 SCT015 BKN032 07/05 Q0997
  • 150750Z 22016KT 9999 -RA SCT018 BKN038 08/06 Q0994
  • 150720Z 21017KT 9999 SCT018 BKN040 08/06 Q0994
  • 150650Z 21018G28KT 9999 -DZ BKN018 08/06 Q0994

TAF TAF EDVK
Valido dal 15 a 09 ore il 15 a 18 ore UTC


150800Z 1509/1518 23015G25KT 9999 BKN030
TEMPO 1509/1511 22020G35KT 4000 SHRA SCT008 BKN015CB
BECMG 1512/1514 21010KT



MetMap, La meteo Aeronautica in un colpo d'occhio ! - Copyright ORBIFLY Dicembre 2007 - Disclaimer

ORBIFLY MET'MAP TEAM :

Programmazione e sviluppo : Alexandra Zaïnal
Concezione : Baudouin d'Aumeries
Aiuto per la programmazione : Marc-Olivier Méhu
Supporto tecnico e logistico : Manuel Goepfert
Aiuto per la traduzione : Arnaldo La Scala

Contatto : metmap@orbifly.com




FONTI E CREDITI :

   NOAA